Ana Sayfa
METAR-TAF:

METAR-TAF

Havaalanları :

Yaş, Romanya

Enlem: 47-10N, Boylam: 027-38E, yükseklik: 102 m

Güncel hava durumu gözlemi

Rapor saat 12:30 UTC de 28 dakika önce yapıldı.
Rüzgar kuzeybatıdan 5 kt, batı ve kuzey/kuzeydoğu arasında değişken
Sıcaklık 30°C
Nem 35%
Basınç 1016 hPa
Görüş mesafesi 10 km veya daha fazla
4800 ft yükseklikte az bulutlu

METAR: LRIA 201230Z 32005KT 260V020 9999 FEW048 30/13 Q1016

Saat: 15:58 (12:58 UTC)

Tahmin

Rapor saat 11:00 UTC de 1 saat ve 58 dakika önce yapıldı.
Ayın 20'si saat 12 UTC'den ayın 20'si saat 21 UTC'ye kadar geçerli Tahmin
Rüzgar batı/kuzeybatıdan 6 kt
Görüş mesafesi 10 km veya daha fazla
4000 ft yükseklikte parçalı bulutlu
Olasılık 40% :
Geçici
ayın 20'si saat 13 UTC'den ayın 20'si saat 16 UTC'ye kadar
3500 ft yükseklikte parçalı bulutlu, Kümülonimbus.

TAF: LRIA 201100Z 2012/2021 29006KT 9999 SCT040 PROB40 TEMPO 2013/2016 SCT035CB

4.000'den fazla havaalanı için hava durumu gözlemleri ve tahminleri (METAR ve TAF raporları).

Kullanılabilir istasyonlar harita üzerinde sarı ve kırmızı noktalarla gösterilir.

İstasyonun adını görmek için fareyi noktanın üzerinde gezdirin.

Sonrasında hava gözlem ve tahminlerini görmek için tıklayın.

Haritayı değiştirmek için: yaklaştırmak için siyah artı işaretli yeşil düğmeye ve uzaklaştırmak için de eksi işaretli düğmeye hızla tıklayın; bitişik haritalar için yeşil okları kullanın.


METAR-TAF: